Time,TemperatureF,DewpointF,PressureIn,WindDirection,WindDirectionDegrees,WindSpeedMPH,WindSpeedGustMPH,Humidity,HourlyPrecipIn,Conditions,Clouds,dailyrainin,SoftwareType,DateUTC
2013-10-13 00:00:00,37.7,30.8,30.31,NW,325,0.0,0.0,76,0.00,,,0.00,Wunderground v.1.15,2013-10-13 05:00:00,
2013-10-13 00:05:00,37.7,30.8,30.31,NW,325,0.0,0.0,76,0.00,,,0.00,Wunderground v.1.15,2013-10-13 05:05:00,
2013-10-13 00:10:00,37.8,30.9,30.31,NW,325,0.0,0.0,76,0.00,,,0.00,Wunderground v.1.15,2013-10-13 05:10:00,
2013-10-13 00:20:00,37.6,30.7,30.31,NW,325,0.0,0.0,76,0.00,,,0.00,Wunderground v.1.15,2013-10-13 05:20:00,
2013-10-13 00:30:00,37.3,30.4,30.31,NW,325,0.0,0.0,76,0.00,,,0.00,Wunderground v.1.15,2013-10-13 05:30:00,
2013-10-13 00:40:00,37.2,30.3,30.31,NW,325,0.0,0.0,76,0.00,,,0.00,Wunderground v.1.15,2013-10-13 05:40:00,
2013-10-13 00:45:00,37.1,30.2,30.31,NW,325,0.0,0.0,76,0.00,,,0.00,Wunderground v.1.15,2013-10-13 05:45:00,
2013-10-13 00:50:00,37.0,30.1,30.32,NW,325,0.0,0.0,76,0.00,,,0.00,Wunderground v.1.15,2013-10-13 05:50:00,
2013-10-13 01:00:00,36.7,30.2,30.32,NW,325,0.0,0.0,77,0.00,,,0.00,Wunderground v.1.15,2013-10-13 06:00:00,
2013-10-13 01:10:00,36.7,30.5,30.32,NW,325,0.0,0.0,78,0.00,,,0.00,Wunderground v.1.15,2013-10-13 06:10:00,
2013-10-13 01:20:00,37.1,30.6,30.33,NW,325,0.0,0.0,77,0.00,,,0.00,Wunderground v.1.15,2013-10-13 06:20:00,
2013-10-13 01:30:00,37.2,30.3,30.33,NW,325,0.0,0.0,76,0.00,,,0.00,Wunderground v.1.15,2013-10-13 06:30:00,
2013-10-13 01:35:00,37.1,30.2,30.33,NW,325,0.0,0.0,76,0.00,,,0.00,Wunderground v.1.15,2013-10-13 06:35:00,
2013-10-13 01:40:00,37.0,30.1,30.33,NW,325,0.0,0.0,76,0.00,,,0.00,Wunderground v.1.15,2013-10-13 06:40:00,
2013-10-13 01:50:00,36.7,30.2,30.33,NW,325,0.0,0.0,77,0.00,,,0.00,Wunderground v.1.15,2013-10-13 06:50:00,
2013-10-13 02:00:00,36.6,30.1,30.34,NW,325,0.0,0.0,77,0.00,,,0.00,Wunderground v.1.15,2013-10-13 07:00:00,
2013-10-13 02:10:00,36.2,29.7,30.34,NW,325,0.0,0.0,77,0.00,,,0.00,Wunderground v.1.15,2013-10-13 07:10:00,
2013-10-13 02:20:00,36.1,29.9,30.34,NW,325,0.0,0.0,78,0.00,,,0.00,Wunderground v.1.15,2013-10-13 07:20:00,
2013-10-13 02:30:00,36.1,29.9,30.34,NW,325,0.0,0.0,78,0.00,,,0.00,Wunderground v.1.15,2013-10-13 07:30:00,
2013-10-13 02:35:00,36.2,30.0,30.35,NW,325,0.0,0.0,78,0.00,,,0.00,Wunderground v.1.15,2013-10-13 07:35:00,
2013-10-13 02:45:00,35.9,29.7,30.35,NW,325,0.0,0.0,78,0.00,,,0.00,Wunderground v.1.15,2013-10-13 07:45:00,
2013-10-13 02:50:00,35.9,29.7,30.35,NW,325,0.0,0.0,78,0.00,,,0.00,Wunderground v.1.15,2013-10-13 07:50:00,
2013-10-13 03:00:00,35.7,29.5,30.35,NW,325,0.0,0.0,78,0.00,,,0.00,Wunderground v.1.15,2013-10-13 08:00:00,
2013-10-13 03:10:00,35.3,29.4,30.35,NW,325,0.0,0.0,79,0.00,,,0.00,Wunderground v.1.15,2013-10-13 08:10:00,
2013-10-13 03:20:00,35.1,29.6,30.35,NW,325,0.0,0.0,80,0.00,,,0.00,Wunderground v.1.15,2013-10-13 08:20:00,
2013-10-13 03:30:00,35.3,30.1,30.35,NW,325,0.0,0.0,81,0.00,,,0.00,Wunderground v.1.15,2013-10-13 08:30:00,
2013-10-13 03:35:00,35.3,30.1,30.35,NW,325,0.0,1.0,81,0.00,,,0.00,Wunderground v.1.15,2013-10-13 08:35:00,
2013-10-13 03:40:00,35.6,30.3,30.35,NW,325,1.0,1.0,81,0.00,,,0.00,Wunderground v.1.15,2013-10-13 08:40:00,
2013-10-13 03:50:00,36.5,30.9,30.35,NW,325,1.0,1.0,80,0.00,,,0.00,Wunderground v.1.15,2013-10-13 08:50:00,
2013-10-13 04:00:00,36.6,31.0,30.35,NW,325,0.0,0.0,80,0.00,,,0.00,Wunderground v.1.15,2013-10-13 09:00:00,
2013-10-13 04:10:00,36.8,31.2,30.35,NW,325,0.0,0.0,80,0.00,,,0.00,Wunderground v.1.15,2013-10-13 09:10:00,
2013-10-13 04:15:00,36.9,31.3,30.35,NW,325,0.0,0.0,80,0.00,,,0.00,Wunderground v.1.15,2013-10-13 09:15:00,
2013-10-13 04:25:00,37.5,34.0,30.35,NW,325,0.0,2.0,87,0.00,,,0.00,Wunderground v.1.15,2013-10-13 09:25:00,
2013-10-13 04:30:00,38.1,32.8,30.35,NW,325,1.0,1.0,81,0.00,,,0.00,Wunderground v.1.15,2013-10-13 09:30:00,
2013-10-13 04:40:00,38.9,33.3,30.35,NW,325,0.0,1.0,80,0.00,,,0.00,Wunderground v.1.15,2013-10-13 09:40:00,
2013-10-13 04:50:00,39.4,33.4,30.35,NW,325,1.0,1.0,79,0.00,,,0.00,Wunderground v.1.15,2013-10-13 09:50:00,
2013-10-13 05:00:00,39.8,33.5,30.35,NW,325,0.0,0.0,78,0.00,,,0.00,Wunderground v.1.15,2013-10-13 10:00:00,
2013-10-13 05:10:00,40.2,33.6,30.35,NW,325,0.0,0.0,77,0.00,,,0.00,Wunderground v.1.15,2013-10-13 10:10:00,
2013-10-13 05:15:00,40.3,33.7,30.35,NW,325,0.0,0.0,77,0.00,,,0.00,Wunderground v.1.15,2013-10-13 10:15:00,
2013-10-13 05:25:00,40.5,33.9,30.35,NW,325,0.0,0.0,77,0.00,,,0.00,Wunderground v.1.15,2013-10-13 10:25:00,
2013-10-13 05:30:00,40.6,34.0,30.35,NW,325,0.0,0.0,77,0.00,,,0.00,Wunderground v.1.15,2013-10-13 10:30:00,
2013-10-13 05:40:00,40.7,33.7,30.35,NW,325,0.0,1.0,76,0.00,,,0.00,Wunderground v.1.15,2013-10-13 10:40:00,
2013-10-13 05:50:00,40.8,34.5,30.36,NW,325,0.0,0.0,78,0.00,,,0.00,Wunderground v.1.15,2013-10-13 10:50:00,
2013-10-13 06:00:00,40.9,34.6,30.36,NW,325,0.0,0.0,78,0.00,,,0.00,Wunderground v.1.15,2013-10-13 11:00:00,
2013-10-13 06:05:00,41.0,34.7,30.36,NW,325,0.0,1.0,78,0.00,,,0.00,Wunderground v.1.15,2013-10-13 11:05:00,
2013-10-13 06:15:00,41.3,35.3,30.36,NW,325,0.0,2.0,79,0.00,,,0.00,Wunderground v.1.15,2013-10-13 11:15:00,
2013-10-13 06:20:00,41.4,35.4,30.36,NW,325,0.0,2.0,79,0.00,,,0.00,Wunderground v.1.15,2013-10-13 11:20:00,
2013-10-13 06:30:00,41.7,35.0,30.36,NW,325,1.0,2.0,77,0.00,,,0.00,Wunderground v.1.15,2013-10-13 11:30:00,
2013-10-13 06:40:00,42.1,35.4,30.36,NW,325,1.0,2.0,77,0.00,,,0.00,Wunderground v.1.15,2013-10-13 11:40:00,
2013-10-13 06:45:00,42.2,35.5,30.36,NW,325,1.0,2.0,77,0.00,,,0.00,Wunderground v.1.15,2013-10-13 11:45:00,
2013-10-13 06:55:00,42.3,34.9,30.36,NW,325,0.0,2.0,75,0.00,,,0.00,Wunderground v.1.15,2013-10-13 11:55:00,
2013-10-13 07:00:00,42.4,35.0,30.37,NW,325,0.0,2.0,75,0.00,,,0.00,Wunderground v.1.15,2013-10-13 12:00:00,
2013-10-13 07:10:00,42.7,34.6,30.36,NW,325,1.0,2.0,73,0.00,,,0.00,Wunderground v.1.15,2013-10-13 12:10:00,
2013-10-13 07:20:00,42.8,34.4,30.37,NW,325,1.0,1.0,72,0.00,,,0.00,Wunderground v.1.15,2013-10-13 12:20:00,
2013-10-13 07:30:00,42.7,33.6,30.37,NW,325,1.0,1.0,70,0.00,,,0.00,Wunderground v.1.15,2013-10-13 12:30:00,
2013-10-13 07:35:00,42.5,33.0,30.37,NW,325,0.0,2.0,69,0.00,,,0.00,Wunderground v.1.15,2013-10-13 12:35:00,
2013-10-13 07:40:00,42.3,32.8,30.37,NW,325,0.0,2.0,69,0.00,,,0.00,Wunderground v.1.15,2013-10-13 12:40:00,
2013-10-13 07:50:00,41.8,32.0,30.37,NW,325,0.0,2.0,68,0.00,,,0.00,Wunderground v.1.15,2013-10-13 12:50:00,
2013-10-13 08:00:00,41.8,32.4,30.37,NW,325,1.0,2.0,69,0.00,,,0.00,Wunderground v.1.15,2013-10-13 13:00:00,
2013-10-13 08:10:00,42.0,32.2,30.38,NW,325,1.0,1.0,68,0.00,,,0.00,Wunderground v.1.15,2013-10-13 13:10:00,
2013-10-13 08:15:00,42.1,32.3,30.38,NW,325,1.0,2.0,68,0.00,,,0.00,Wunderground v.1.15,2013-10-13 13:15:00,
2013-10-13 08:25:00,42.2,32.0,30.38,NW,325,1.0,2.0,67,0.00,,,0.00,Wunderground v.1.15,2013-10-13 13:25:00,
2013-10-13 08:30:00,42.4,32.2,30.38,NW,325,1.0,2.0,67,0.00,,,0.00,Wunderground v.1.15,2013-10-13 13:30:00,
2013-10-13 08:40:00,43.3,32.7,30.38,NW,325,1.0,2.0,66,0.00,,,0.00,Wunderground v.1.15,2013-10-13 13:40:00,
2013-10-13 08:50:00,44.6,33.2,30.38,East,88,1.0,2.0,64,0.00,,,0.00,Wunderground v.1.15,2013-10-13 13:50:00,
2013-10-13 09:00:00,46.0,33.7,30.38,East,88,1.0,2.0,62,0.00,,,0.00,Wunderground v.1.15,2013-10-13 14:00:00,
2013-10-13 09:05:00,46.8,34.0,30.39,East,88,1.0,2.0,61,0.00,,,0.00,Wunderground v.1.15,2013-10-13 14:05:00,
2013-10-13 09:15:00,47.9,33.4,30.39,SE,130,2.0,4.0,57,0.00,,,0.00,Wunderground v.1.15,2013-10-13 14:15:00,
2013-10-13 09:20:00,48.2,33.7,30.40,SE,134,3.0,3.0,57,0.00,,,0.00,Wunderground v.1.15,2013-10-13 14:20:00,
2013-10-13 09:30:00,48.7,34.6,30.40,SSE,156,2.0,2.0,58,0.00,,,0.00,Wunderground v.1.15,2013-10-13 14:30:00,
2013-10-13 09:40:00,49.6,34.5,30.40,SE,135,3.0,3.0,56,0.00,,,0.00,Wunderground v.1.15,2013-10-13 14:40:00,
2013-10-13 09:50:00,50.9,34.8,30.40,SSE,154,2.0,5.0,54,0.00,,,0.00,Wunderground v.1.15,2013-10-13 14:50:00,
2013-10-13 09:55:00,51.6,34.5,30.40,SSE,163,3.0,5.0,52,0.00,,,0.00,Wunderground v.1.15,2013-10-13 14:55:00,
2013-10-13 10:05:00,52.4,34.8,30.40,South,170,6.0,6.0,51,0.00,,,0.00,Wunderground v.1.15,2013-10-13 15:05:00,
2013-10-13 10:10:00,52.7,34.6,30.40,SSE,167,6.0,7.0,50,0.00,,,0.00,Wunderground v.1.15,2013-10-13 15:10:00,
2013-10-13 10:20:00,53.6,34.4,30.40,SSE,166,7.0,7.0,48,0.00,,,0.00,Wunderground v.1.15,2013-10-13 15:20:00,
2013-10-13 10:30:00,54.6,35.3,30.39,ESE,120,7.0,7.0,48,0.00,,,0.00,Wunderground v.1.15,2013-10-13 15:30:00,
2013-10-13 10:40:00,55.7,32.3,30.40,South,188,7.0,7.0,41,0.00,,,0.00,Wunderground v.1.15,2013-10-13 15:40:00,
2013-10-13 10:50:00,56.7,32.0,30.41,SE,146,9.0,9.0,39,0.00,,,0.00,Wunderground v.1.15,2013-10-13 15:50:00,
2013-10-13 10:55:00,57.4,33.3,30.40,SSE,153,7.0,9.0,40,0.00,,,0.00,Wunderground v.1.15,2013-10-13 15:55:00,
2013-10-13 11:00:00,58.0,33.2,30.40,SSE,167,6.0,9.0,39,0.00,,,0.00,Wunderground v.1.15,2013-10-13 16:00:00,
2013-10-13 11:10:00,58.9,31.3,30.39,SSE,159,9.0,9.0,35,0.00,,,0.00,Wunderground v.1.15,2013-10-13 16:10:00,
2013-10-13 11:20:00,59.6,31.2,30.39,South,170,9.0,10.0,34,0.00,,,0.00,Wunderground v.1.15,2013-10-13 16:20:00,
2013-10-13 11:30:00,60.2,31.7,30.39,SSE,164,8.0,12.0,34,0.00,,,0.00,Wunderground v.1.15,2013-10-13 16:30:00,
2013-10-13 11:40:00,60.6,31.3,30.39,South,170,9.0,9.0,33,0.00,,,0.00,Wunderground v.1.15,2013-10-13 16:40:00,
2013-10-13 11:45:00,60.9,30.8,30.39,SSE,149,9.0,11.0,32,0.00,,,0.00,Wunderground v.1.15,2013-10-13 16:45:00,
2013-10-13 11:55:00,61.5,31.3,30.38,SSE,157,8.0,12.0,32,0.00,,,0.00,Wunderground v.1.15,2013-10-13 16:55:00,
2013-10-13 12:00:00,61.9,33.2,30.38,SE,132,7.0,7.0,34,0.00,,,0.00,Wunderground v.1.15,2013-10-13 17:00:00,
2013-10-13 12:10:00,62.8,32.5,30.37,SSW,194,7.0,7.0,32,0.00,,,0.00,Wunderground v.1.15,2013-10-13 17:10:00,
2013-10-13 12:20:00,62.9,32.6,30.37,SSE,168,7.0,7.0,32,0.00,,,0.00,Wunderground v.1.15,2013-10-13 17:20:00,
2013-10-13 12:30:00,63.5,31.5,30.37,SSE,153,8.0,8.0,30,0.00,,,0.00,Wunderground v.1.15,2013-10-13 17:30:00,
2013-10-13 12:40:00,63.8,33.4,30.36,South,178,8.0,8.0,32,0.00,,,0.00,Wunderground v.1.15,2013-10-13 17:40:00,
2013-10-13 12:45:00,64.3,32.2,30.36,SSE,153,8.0,11.0,30,0.00,,,0.00,Wunderground v.1.15,2013-10-13 17:45:00,
2013-10-13 12:55:00,64.6,32.4,30.36,SSW,193,8.0,15.0,30,0.00,,,0.00,Wunderground v.1.15,2013-10-13 17:55:00,
2013-10-13 13:00:00,64.8,32.6,30.36,SSE,158,8.0,8.0,30,0.00,,,0.00,Wunderground v.1.15,2013-10-13 18:00:00,
2013-10-13 13:10:00,64.9,31.9,30.35,South,176,9.0,9.0,29,0.00,,,0.00,Wunderground v.1.15,2013-10-13 18:10:00,
2013-10-13 13:20:00,65.1,32.9,30.35,SSW,193,8.0,15.0,30,0.00,,,0.00,Wunderground v.1.15,2013-10-13 18:20:00,
2013-10-13 13:30:00,65.5,32.4,30.34,SSW,202,9.0,15.0,29,0.00,,,0.00,Wunderground v.1.15,2013-10-13 18:30:00,
2013-10-13 13:35:00,65.5,32.4,30.34,SSW,211,9.0,15.0,29,0.00,,,0.00,Wunderground v.1.15,2013-10-13 18:35:00,
2013-10-13 13:45:00,65.7,32.5,30.34,South,180,10.0,15.0,29,0.00,,,0.00,Wunderground v.1.15,2013-10-13 18:45:00,
2013-10-13 13:50:00,66.1,32.0,30.33,South,182,9.0,15.0,28,0.00,,,0.00,Wunderground v.1.15,2013-10-13 18:50:00,
2013-10-13 14:00:00,66.8,33.5,30.33,SE,142,9.0,9.0,29,0.00,,,0.00,Wunderground v.1.15,2013-10-13 19:00:00,
2013-10-13 14:10:00,67.1,34.6,30.32,SE,136,8.0,15.0,30,0.00,,,0.00,Wunderground v.1.15,2013-10-13 19:10:00,
2013-10-13 14:20:00,67.5,33.2,30.32,SSE,164,9.0,15.0,28,0.00,,,0.00,Wunderground v.1.15,2013-10-13 19:20:00,
2013-10-13 14:25:00,67.5,32.3,30.32,South,173,9.0,15.0,27,0.00,,,0.00,Wunderground v.1.15,2013-10-13 19:25:00,
2013-10-13 14:35:00,67.9,32.7,30.31,SSE,163,10.0,15.0,27,0.00,,,0.00,Wunderground v.1.15,2013-10-13 19:35:00,
2013-10-13 14:40:00,67.6,32.4,30.31,South,171,10.0,10.0,27,0.00,,,0.00,Wunderground v.1.15,2013-10-13 19:40:00,
2013-10-13 14:50:00,67.8,33.5,30.30,SE,133,9.0,15.0,28,0.00,,,0.00,Wunderground v.1.15,2013-10-13 19:50:00,
2013-10-13 15:00:00,67.9,32.7,30.30,SSE,165,9.0,15.0,27,0.00,,,0.00,Wunderground v.1.15,2013-10-13 20:00:00,
2013-10-13 15:10:00,68.3,33.0,30.29,SSE,151,9.0,15.0,27,0.00,,,0.00,Wunderground v.1.15,2013-10-13 20:10:00,
2013-10-13 15:15:00,68.2,32.9,30.29,South,184,9.0,15.0,27,0.00,,,0.00,Wunderground v.1.15,2013-10-13 20:15:00,
2013-10-13 15:25:00,68.1,32.8,30.28,SSE,151,10.0,15.0,27,0.00,,,0.00,Wunderground v.1.15,2013-10-13 20:25:00,
2013-10-13 15:30:00,68.3,33.0,30.28,South,183,10.0,10.0,27,0.00,,,0.00,Wunderground v.1.15,2013-10-13 20:30:00,
2013-10-13 15:40:00,68.4,32.1,30.28,SSE,165,9.0,9.0,26,0.00,,,0.00,Wunderground v.1.15,2013-10-13 20:40:00,
2013-10-13 15:50:00,68.4,31.2,30.27,SSW,199,10.0,10.0,25,0.00,,,0.00,Wunderground v.1.15,2013-10-13 20:50:00,
2013-10-13 16:00:00,68.4,32.1,30.27,South,170,9.0,9.0,26,0.00,,,0.00,Wunderground v.1.15,2013-10-13 21:00:00,
2013-10-13 16:05:00,68.3,31.1,30.26,SSE,153,10.0,12.0,25,0.00,,,0.00,Wunderground v.1.15,2013-10-13 21:05:00,
2013-10-13 16:15:00,68.3,32.1,30.26,SSW,195,10.0,15.0,26,0.00,,,0.00,Wunderground v.1.15,2013-10-13 21:15:00,
2013-10-13 16:20:00,68.2,32.9,30.26,SSE,165,10.0,10.0,27,0.00,,,0.00,Wunderground v.1.15,2013-10-13 21:20:00,
2013-10-13 16:30:00,68.3,32.1,30.26,SSE,167,10.0,10.0,26,0.00,,,0.00,Wunderground v.1.15,2013-10-13 21:30:00,
2013-10-13 16:40:00,68.1,32.8,30.25,South,190,10.0,19.0,27,0.00,,,0.00,Wunderground v.1.15,2013-10-13 21:40:00,
2013-10-13 16:50:00,68.1,32.8,30.25,SSE,153,8.0,8.0,27,0.00,,,0.00,Wunderground v.1.15,2013-10-13 21:50:00,
2013-10-13 17:00:00,67.9,33.6,30.25,SE,134,9.0,9.0,28,0.00,,,0.00,Wunderground v.1.15,2013-10-13 22:00:00,
2013-10-13 17:10:00,67.9,32.7,30.24,SSE,155,7.0,15.0,27,0.00,,,0.00,Wunderground v.1.15,2013-10-13 22:10:00,
2013-10-13 17:15:00,67.6,32.4,30.24,South,183,8.0,15.0,27,0.00,,,0.00,Wunderground v.1.15,2013-10-13 22:15:00,
2013-10-13 17:25:00,67.2,33.0,30.24,South,169,8.0,15.0,28,0.00,,,0.00,Wunderground v.1.15,2013-10-13 22:25:00,
2013-10-13 17:30:00,67.0,32.8,30.24,SE,126,6.0,6.0,28,0.00,,,0.00,Wunderground v.1.15,2013-10-13 22:30:00,
2013-10-13 17:40:00,66.7,32.5,30.24,SSE,153,6.0,15.0,28,0.00,,,0.00,Wunderground v.1.15,2013-10-13 22:40:00,
2013-10-13 17:50:00,66.0,32.8,30.24,SSE,157,9.0,9.0,29,0.00,,,0.00,Wunderground v.1.15,2013-10-13 22:50:00,
2013-10-13 18:00:00,65.5,33.2,30.24,South,180,6.0,8.0,30,0.00,,,0.00,Wunderground v.1.15,2013-10-13 23:00:00,
2013-10-13 18:05:00,65.2,33.0,30.24,SE,140,6.0,20.0,30,0.00,,,0.00,Wunderground v.1.15,2013-10-13 23:05:00,
2013-10-13 18:15:00,64.5,33.2,30.24,SE,124,6.0,20.0,31,0.00,,,0.00,Wunderground v.1.15,2013-10-13 23:15:00,
2013-10-13 18:20:00,64.0,33.5,30.24,SSE,159,5.0,5.0,32,0.00,,,0.00,Wunderground v.1.15,2013-10-13 23:20:00,
2013-10-13 18:30:00,62.7,33.9,30.23,ESE,119,3.0,3.0,34,0.00,,,0.00,Wunderground v.1.15,2013-10-13 23:30:00,
2013-10-13 18:40:00,61.6,33.7,30.23,ESE,113,3.0,20.0,35,0.00,,,0.00,Wunderground v.1.15,2013-10-13 23:40:00,
2013-10-13 18:50:00,60.7,33.6,30.24,SE,138,2.0,2.0,36,0.00,,,0.00,Wunderground v.1.15,2013-10-13 23:50:00,
2013-10-13 18:55:00,60.3,33.2,30.24,SE,142,2.0,20.0,36,0.00,,,0.00,Wunderground v.1.15,2013-10-13 23:55:00,
2013-10-13 19:05:00,59.6,34.6,30.24,SE,136,2.0,20.0,39,0.00,,,0.00,Wunderground v.1.15,2013-10-14 00:05:00,
2013-10-13 19:10:00,59.2,34.2,30.25,SE,125,1.0,1.0,39,0.00,,,0.00,Wunderground v.1.15,2013-10-14 00:10:00,
2013-10-13 19:20:00,58.3,34.1,30.25,SE,135,1.0,20.0,40,0.00,,,0.00,Wunderground v.1.15,2013-10-14 00:20:00,
2013-10-13 19:30:00,58.0,34.4,30.25,SE,126,2.0,20.0,41,0.00,,,0.00,Wunderground v.1.15,2013-10-14 00:30:00,
2013-10-13 19:40:00,57.9,34.9,30.25,SE,132,2.0,2.0,42,0.00,,,0.00,Wunderground v.1.15,2013-10-14 00:40:00,
2013-10-13 19:45:00,57.8,34.8,30.25,ESE,123,2.0,4.0,42,0.00,,,0.00,Wunderground v.1.15,2013-10-14 00:45:00,
2013-10-13 19:50:00,57.7,34.7,30.25,ESE,115,2.0,20.0,42,0.00,,,0.00,Wunderground v.1.15,2013-10-14 00:50:00,
2013-10-13 20:00:00,57.5,34.6,30.25,SE,131,2.0,2.0,42,0.00,,,0.00,Wunderground v.1.15,2013-10-14 01:00:00,
2013-10-13 20:10:00,57.2,34.9,30.25,SE,128,2.0,2.0,43,0.00,,,0.00,Wunderground v.1.15,2013-10-14 01:10:00,
2013-10-13 20:20:00,57.1,34.8,30.25,ESE,112,2.0,20.0,43,0.00,,,0.00,Wunderground v.1.15,2013-10-14 01:20:00,
2013-10-13 20:30:00,57.2,34.9,30.25,ESE,119,2.0,20.0,43,0.00,,,0.00,Wunderground v.1.15,2013-10-14 01:30:00,
2013-10-13 20:35:00,57.1,34.8,30.25,ESE,122,1.0,20.0,43,0.00,,,0.00,Wunderground v.1.15,2013-10-14 01:35:00,
2013-10-13 20:45:00,56.8,34.5,30.24,ESE,105,2.0,20.0,43,0.00,,,0.00,Wunderground v.1.15,2013-10-14 01:45:00,
2013-10-13 20:55:00,56.8,35.1,30.24,ESE,114,3.0,20.0,44,0.00,,,0.00,Wunderground v.1.15,2013-10-14 01:55:00,
2013-10-13 21:00:00,56.8,35.1,30.24,SE,130,3.0,3.0,44,0.00,,,0.00,Wunderground v.1.15,2013-10-14 02:00:00,
2013-10-13 21:10:00,56.5,34.8,30.24,ESE,115,2.0,2.0,44,0.00,,,0.00,Wunderground v.1.15,2013-10-14 02:10:00,
2013-10-13 21:20:00,56.2,35.1,30.25,SSE,152,2.0,20.0,45,0.00,,,0.00,Wunderground v.1.15,2013-10-14 02:20:00,
2013-10-13 21:30:00,56.2,36.2,30.26,South,171,2.0,20.0,47,0.00,,,0.00,Wunderground v.1.15,2013-10-14 02:30:00,
2013-10-13 21:35:00,55.9,39.5,30.26,SSE,161,3.0,20.0,54,0.00,,,0.00,Wunderground v.1.15,2013-10-14 02:35:00,
2013-10-13 21:45:00,54.8,40.3,30.26,SSE,153,3.0,20.0,58,0.00,,,0.00,Wunderground v.1.15,2013-10-14 02:45:00,
2013-10-13 21:50:00,54.4,39.9,30.25,SE,139,2.0,20.0,58,0.00,,,0.00,Wunderground v.1.15,2013-10-14 02:50:00,
2013-10-13 22:00:00,54.0,39.5,30.25,SE,127,2.0,20.0,58,0.00,,,0.00,Wunderground v.1.15,2013-10-14 03:00:00,
2013-10-13 22:10:00,53.8,39.8,30.26,SE,142,3.0,20.0,59,0.00,,,0.00,Wunderground v.1.15,2013-10-14 03:10:00,
2013-10-13 22:15:00,53.7,39.7,30.25,SE,139,2.0,20.0,59,0.00,,,0.00,Wunderground v.1.15,2013-10-14 03:15:00,
2013-10-13 22:25:00,53.4,40.3,30.26,SSE,156,4.0,8.0,61,0.00,,,0.00,Wunderground v.1.15,2013-10-14 03:25:00,
2013-10-13 22:30:00,53.2,40.9,30.26,SSE,161,6.0,20.0,63,0.00,,,0.00,Wunderground v.1.15,2013-10-14 03:30:00,
2013-10-13 22:40:00,52.6,41.6,30.25,SSE,148,6.0,6.0,66,0.00,,,0.01,Wunderground v.1.15,2013-10-14 03:40:00,
2013-10-13 22:50:00,52.0,42.1,30.25,ESE,121,3.0,3.0,69,0.05,,,0.02,Wunderground v.1.15,2013-10-14 03:50:00,
2013-10-13 22:55:00,51.6,42.5,30.24,SE,130,2.0,20.0,71,0.05,,,0.02,Wunderground v.1.15,2013-10-14 03:55:00,
2013-10-13 23:05:00,51.0,42.6,30.24,SE,128,2.0,20.0,73,0.04,,,0.02,Wunderground v.1.15,2013-10-14 04:05:00,
2013-10-13 23:10:00,51.0,42.6,30.24,SE,138,2.0,20.0,73,0.00,,,0.02,Wunderground v.1.15,2013-10-14 04:10:00,
2013-10-13 23:15:00,51.0,42.6,30.24,SE,132,2.0,20.0,73,0.00,,,0.02,Wunderground v.1.15,2013-10-14 04:15:00,
2013-10-13 23:20:00,51.2,42.8,30.23,SE,138,2.0,20.0,73,0.00,,,0.02,Wunderground v.1.15,2013-10-14 04:20:00,
2013-10-13 23:30:00,51.4,43.0,30.23,SSE,157,3.0,3.0,73,0.00,,,0.02,Wunderground v.1.15,2013-10-14 04:30:00,
2013-10-13 23:35:00,51.5,42.8,30.24,SE,146,3.0,9.0,72,0.00,,,0.02,Wunderground v.1.15,2013-10-14 04:35:00,
2013-10-13 23:40:00,51.7,42.6,30.24,SSE,167,5.0,20.0,71,0.00,,,0.02,Wunderground v.1.15,2013-10-14 04:40:00,
2013-10-13 23:45:00,51.9,42.4,30.25,SSE,164,6.0,20.0,70,0.00,,,0.02,Wunderground v.1.15,2013-10-14 04:45:00,
2013-10-13 23:50:00,52.1,42.2,30.26,SSW,198,6.0,6.0,69,0.00,,,0.02,Wunderground v.1.15,2013-10-14 04:50:00,